ヤクーツク の空港の天気 - METARとTAF

ヤクーツク空港 ( UEEE / YKS ) - ロシア ヤクーツク
飛行場実況気象(Metar)
観測時間07/17 18:30 YAKT (07/17 09:30 UTC)
風向・風速北北西 3m/s
視程5000m
天気現象
少しの雲 雲底高度 1520m
気温20℃
湿度60%
気圧1004hPa
METARUEEE 170930Z 34003MPS 5000 FU FEW050CB 20/12 Q1004 R23L/09//60 NOSIG RMK QFE744
過去の天気等 Google飛行場航空写真 Wunderground天気予報

過去48時間のMETAR

飛行場予報(TAF)
発表時間: 7/17 17:00 YAKT (7/17 08:00 UTC)
予報対象時間: 17日18時 YAKT ~ 19日0時 YAKT
風向・風速北 3m/s 瞬間風速 8m/s
視程3200m
天気現象
全天の4割程度の積乱雲 雲底高度 910m
全天を覆う雲 雲底高度 2130m
17日18時 YAKT ~ 17日21時 YAKT に一時的に
風向・風速不定 19m/s
視程2100m
天気現象弱い雷雨ひょう スコール
TAF UEEE 170800Z 1709/1815 01003G08MPS 3200 FU SCT030CB OVC070
TEMPO 1709/1712 VRB19MPS 2100 -TSRAGR SQ